createdAt,value
2016-10-26T00:00:20.798Z,83.08
2016-10-26T00:00:47.287Z,82.90
2016-10-26T00:01:08.998Z,82.73
2016-10-26T00:01:30.727Z,82.78
2016-10-26T00:01:52.444Z,82.84
2016-10-26T00:02:14.160Z,82.76
2016-10-26T00:02:35.898Z,82.95
2016-10-26T00:02:57.618Z,83.14
2016-10-26T00:03:19.337Z,83.39
2016-10-26T00:03:41.051Z,83.57
2016-10-26T00:04:02.779Z,83.60
2016-10-26T00:04:24.495Z,83.46
2016-10-26T00:04:46.216Z,83.46
2016-10-26T00:05:07.927Z,83.60
2016-10-26T00:05:29.646Z,83.46
2016-10-26T00:05:51.359Z,83.48
2016-10-26T00:06:13.071Z,83.49
2016-10-26T00:06:34.791Z,83.56
2016-10-26T00:06:56.511Z,83.57
2016-10-26T00:07:18.224Z,83.64
2016-10-26T00:07:39.952Z,83.73
2016-10-26T00:08:01.673Z,83.81
2016-10-26T00:08:23.395Z,83.90
2016-10-26T00:08:45.120Z,83.74
2016-10-26T00:09:06.836Z,83.91
2016-10-26T00:09:28.552Z,83.87
2016-10-26T00:09:50.271Z,83.85
2016-10-26T00:10:11.977Z,83.91
2016-10-26T00:10:33.697Z,83.84
2016-10-26T00:10:55.434Z,83.70
2016-10-26T00:11:17.136Z,83.70
2016-10-26T00:11:38.931Z,83.79
2016-10-26T00:12:00.650Z,83.89
2016-10-26T00:12:22.380Z,83.85
2016-10-26T00:12:44.105Z,83.80
2016-10-26T00:13:05.826Z,83.74
2016-10-26T00:13:27.552Z,83.59
2016-10-26T00:13:49.279Z,83.41
2016-10-26T00:14:11.024Z,83.40
2016-10-26T00:14:32.723Z,83.48
2016-10-26T00:14:54.424Z,83.57
2016-10-26T00:15:16.143Z,83.79
2016-10-26T00:15:37.934Z,84.05
2016-10-26T00:15:59.665Z,84.31
2016-10-26T00:16:21.394Z,84.48
2016-10-26T00:16:43.109Z,84.67
2016-10-26T00:17:04.831Z,84.75
2016-10-26T00:17:26.546Z,84.90
2016-10-26T00:17:48.268Z,84.77
2016-10-26T00:18:09.982Z,84.62
2016-10-26T00:18:31.694Z,84.41
2016-10-26T00:19:19.924Z,84.45
2016-10-26T00:19:41.637Z,84.66
2016-10-26T00:20:03.367Z,84.71
2016-10-26T00:20:25.085Z,84.75
2016-10-26T00:20:46.806Z,84.82
2016-10-26T00:21:08.654Z,85.04
2016-10-26T00:21:30.378Z,85.22
2016-10-26T00:21:52.094Z,85.19
2016-10-26T00:22:13.834Z,85.07
2016-10-26T00:22:35.537Z,84.85
2016-10-26T00:22:57.252Z,84.87
2016-10-26T00:23:18.971Z,84.84
2016-10-26T00:23:40.698Z,84.88
2016-10-26T00:24:02.415Z,84.92
2016-10-26T00:24:24.154Z,84.90
2016-10-26T00:24:45.878Z,84.91
2016-10-26T00:25:07.610Z,84.89
2016-10-26T00:25:29.333Z,84.94
2016-10-26T00:25:51.050Z,85.03
2016-10-26T00:26:12.858Z,85.09
2016-10-26T00:26:34.577Z,85.17
2016-10-26T00:26:56.297Z,85.13
2016-10-26T00:27:18.008Z,85.07
2016-10-26T00:27:39.726Z,84.80
2016-10-26T00:28:01.469Z,84.70
2016-10-26T00:28:23.174Z,84.63
2016-10-26T00:28:44.893Z,84.44
2016-10-26T00:29:06.605Z,84.65
2016-10-26T00:29:28.335Z,84.68
2016-10-26T00:29:50.061Z,84.55
2016-10-26T00:30:11.783Z,84.56
2016-10-26T00:30:33.501Z,84.63
2016-10-26T00:30:55.214Z,84.44
2016-10-26T00:31:16.935Z,84.31
2016-10-26T00:31:38.657Z,84.40
2016-10-26T00:32:00.396Z,84.80
2016-10-26T00:32:22.114Z,84.85
2016-10-26T00:32:43.827Z,85.19
2016-10-26T00:33:05.550Z,85.47
2016-10-26T00:33:27.268Z,85.54
2016-10-26T00:33:48.990Z,85.69
2016-10-26T00:34:10.707Z,85.91
2016-10-26T00:34:32.423Z,86.00
2016-10-26T00:34:54.135Z,86.03
2016-10-26T00:35:15.874Z,86.05
2016-10-26T00:35:37.594Z,86.05
2016-10-26T00:35:59.312Z,86.05
2016-10-26T00:36:21.030Z,85.93
2016-10-26T00:36:42.748Z,85.88
2016-10-26T00:37:04.464Z,85.84
2016-10-26T00:37:26.185Z,85.83
2016-10-26T00:37:47.898Z,85.89
2016-10-26T00:38:09.615Z,85.65
2016-10-26T00:38:31.333Z,85.42
2016-10-26T00:38:53.051Z,85.17
2016-10-26T00:39:14.763Z,85.04
2016-10-26T00:39:36.481Z,85.16
2016-10-26T00:39:58.202Z,85.21
2016-10-26T00:40:19.934Z,85.30
2016-10-26T00:40:41.655Z,85.33
2016-10-26T00:41:03.435Z,85.39
2016-10-26T00:41:25.149Z,85.55
2016-10-26T00:41:46.878Z,85.62
2016-10-26T00:42:08.594Z,85.70
2016-10-26T00:42:30.310Z,85.63
2016-10-26T00:42:52.028Z,85.69
2016-10-26T00:43:13.743Z,85.76
2016-10-26T00:43:35.459Z,85.81
2016-10-26T00:43:57.189Z,85.47
2016-10-26T00:44:18.919Z,85.49
2016-10-26T00:44:40.634Z,85.83
2016-10-26T00:45:02.358Z,86.13
2016-10-26T00:45:24.080Z,86.21
2016-10-26T00:45:45.791Z,86.17
2016-10-26T00:46:07.512Z,86.18
2016-10-26T00:46:29.224Z,86.06
2016-10-26T00:46:50.948Z,86.00
2016-10-26T00:47:12.690Z,85.80
2016-10-26T00:47:34.417Z,85.74
2016-10-26T00:47:56.136Z,85.64
2016-10-26T00:48:17.854Z,85.21
2016-10-26T00:48:39.568Z,85.24
2016-10-26T00:49:06.049Z,85.36
2016-10-26T00:49:27.779Z,85.58
2016-10-26T00:49:49.499Z,85.71
2016-10-26T00:50:11.215Z,85.71
2016-10-26T00:50:32.928Z,85.74
2016-10-26T00:50:54.648Z,85.79
2016-10-26T00:51:16.381Z,85.81
2016-10-26T00:51:38.098Z,85.75
2016-10-26T00:51:59.813Z,85.45
2016-10-26T00:52:21.549Z,85.42
2016-10-26T00:52:43.264Z,85.40
2016-10-26T00:53:04.978Z,85.55
2016-10-26T00:53:26.694Z,85.75
2016-10-26T00:53:48.407Z,85.72
2016-10-26T00:54:10.123Z,85.69
2016-10-26T00:54:31.849Z,85.66
2016-10-26T00:54:53.574Z,85.73
2016-10-26T00:55:15.286Z,85.51
2016-10-26T00:55:37.020Z,85.53
2016-10-26T00:55:58.743Z,85.32
2016-10-26T00:56:20.470Z,85.26
2016-10-26T00:56:42.188Z,85.22
2016-10-26T00:57:03.899Z,85.33
2016-10-26T00:57:25.640Z,85.41
2016-10-26T00:57:47.362Z,85.50
2016-10-26T00:58:09.086Z,85.46
2016-10-26T00:58:30.820Z,85.41
2016-10-26T00:58:52.535Z,85.38
2016-10-26T00:59:14.254Z,85.28
2016-10-26T00:59:40.736Z,85.25
2016-10-26T01:00:02.465Z,85.12
2016-10-26T01:00:24.180Z,85.09
2016-10-26T01:00:45.892Z,85.00
2016-10-26T01:01:07.622Z,84.92
2016-10-26T01:01:29.399Z,85.05
2016-10-26T01:01:51.117Z,85.16
2016-10-26T01:02:12.834Z,85.21
2016-10-26T01:02:34.547Z,85.25
2016-10-26T01:02:56.267Z,85.13
2016-10-26T01:03:17.993Z,85.14
2016-10-26T01:03:39.711Z,85.09
2016-10-26T01:04:01.435Z,84.94
2016-10-26T01:04:23.155Z,84.79
2016-10-26T01:04:44.872Z,84.61
2016-10-26T01:05:06.594Z,84.47
2016-10-26T01:05:28.312Z,84.57
2016-10-26T01:05:54.798Z,84.37
2016-10-26T01:06:16.518Z,84.26
2016-10-26T01:06:38.242Z,84.42
2016-10-26T01:06:59.967Z,84.44
2016-10-26T01:07:21.692Z,84.39
2016-10-26T01:07:43.424Z,84.33
2016-10-26T01:08:05.150Z,84.28
2016-10-26T01:08:26.867Z,84.57
2016-10-26T01:08:48.586Z,84.66
2016-10-26T01:09:10.317Z,84.95
2016-10-26T01:09:32.034Z,84.99
2016-10-26T01:09:53.751Z,84.95
2016-10-26T01:10:15.467Z,85.15
2016-10-26T01:10:41.957Z,85.14
2016-10-26T01:11:03.681Z,85.23
2016-10-26T01:11:25.391Z,84.93
2016-10-26T01:11:47.106Z,85.03
2016-10-26T01:12:08.838Z,84.93
2016-10-26T01:12:30.557Z,84.89
2016-10-26T01:12:52.294Z,85.00
2016-10-26T01:13:14.016Z,85.18
2016-10-26T01:13:35.737Z,85.10
2016-10-26T01:13:57.461Z,85.00
2016-10-26T01:14:19.182Z,85.16
2016-10-26T01:14:40.902Z,85.16
2016-10-26T01:15:02.623Z,85.18
2016-10-26T01:15:24.340Z,84.93
2016-10-26T01:15:46.060Z,85.08
2016-10-26T01:16:07.779Z,85.23
2016-10-26T01:16:29.498Z,85.39
2016-10-26T01:16:51.221Z,85.50
2016-10-26T01:17:12.946Z,85.57
2016-10-26T01:17:34.682Z,85.56
2016-10-26T01:17:56.397Z,85.46
2016-10-26T01:18:18.134Z,85.24
2016-10-26T01:18:39.889Z,85.11
2016-10-26T01:19:01.605Z,85.01
2016-10-26T01:19:23.324Z,84.94
2016-10-26T01:19:45.042Z,84.98
2016-10-26T01:20:06.762Z,85.08
2016-10-26T01:20:28.483Z,85.15
2016-10-26T01:20:50.201Z,85.27
2016-10-26T01:21:11.923Z,85.37
2016-10-26T01:21:33.638Z,85.46
2016-10-26T01:21:55.353Z,85.63
2016-10-26T01:22:17.067Z,85.57
2016-10-26T01:22:43.595Z,85.43
2016-10-26T01:23:05.305Z,85.58
2016-10-26T01:23:27.022Z,85.55
2016-10-26T01:23:48.733Z,85.29
2016-10-26T01:24:10.470Z,85.18
2016-10-26T01:24:32.178Z,85.31
2016-10-26T01:24:53.889Z,85.65
2016-10-26T01:25:15.606Z,85.59
2016-10-26T01:25:37.414Z,85.40
2016-10-26T01:25:59.127Z,85.50
2016-10-26T01:26:20.866Z,85.32
2016-10-26T01:26:42.582Z,85.49
2016-10-26T01:27:09.101Z,85.63
2016-10-26T01:27:30.828Z,85.60
2016-10-26T01:27:52.550Z,85.59
2016-10-26T01:28:14.272Z,85.63
2016-10-26T01:28:36.004Z,85.63
2016-10-26T01:28:57.722Z,85.71
2016-10-26T01:29:19.452Z,85.94
2016-10-26T01:29:41.171Z,85.83
2016-10-26T01:30:02.891Z,85.78
2016-10-26T01:30:24.604Z,85.90
2016-10-26T01:30:46.321Z,85.87
2016-10-26T01:31:08.047Z,85.98
2016-10-26T01:31:29.795Z,85.77
2016-10-26T01:31:51.516Z,85.72
2016-10-26T01:32:13.235Z,85.68
2016-10-26T01:32:34.954Z,85.51
2016-10-26T01:32:56.680Z,85.35
2016-10-26T01:33:18.393Z,85.03
2016-10-26T01:33:40.123Z,85.26
2016-10-26T01:34:01.845Z,85.10
2016-10-26T01:34:23.572Z,85.03
2016-10-26T01:34:45.293Z,85.11
2016-10-26T01:35:07.010Z,85.11
2016-10-26T01:35:28.733Z,85.19
2016-10-26T01:35:50.460Z,85.21
2016-10-26T01:36:12.178Z,85.31
2016-10-26T01:36:33.898Z,85.34
2016-10-26T01:36:55.630Z,85.30
2016-10-26T01:37:17.349Z,85.46
2016-10-26T01:37:39.148Z,85.55
2016-10-26T01:38:00.876Z,85.47
2016-10-26T01:38:22.595Z,85.52
2016-10-26T01:38:44.314Z,85.38
2016-10-26T01:39:06.050Z,84.97
2016-10-26T01:39:27.774Z,84.86
2016-10-26T01:39:49.483Z,85.00
2016-10-26T01:40:11.206Z,84.90
2016-10-26T01:40:32.920Z,84.91
2016-10-26T01:40:54.642Z,84.80
2016-10-26T01:41:16.390Z,84.72
2016-10-26T01:41:38.104Z,84.53
2016-10-26T01:41:59.830Z,84.48
2016-10-26T01:42:21.538Z,84.59
2016-10-26T01:42:43.260Z,84.55
2016-10-26T01:43:04.991Z,84.63
2016-10-26T01:43:26.728Z,84.64
2016-10-26T01:43:48.454Z,84.55
2016-10-26T01:44:10.175Z,84.42
2016-10-26T01:44:31.892Z,84.42
2016-10-26T01:44:53.625Z,84.59
2016-10-26T01:45:15.342Z,84.78
2016-10-26T01:45:37.062Z,84.84
2016-10-26T01:45:58.794Z,85.00
2016-10-26T01:46:20.510Z,85.01
2016-10-26T01:46:42.225Z,84.99
2016-10-26T01:47:03.944Z,84.77
2016-10-26T01:47:25.657Z,84.75
2016-10-26T01:47:47.380Z,84.79
2016-10-26T01:48:09.097Z,84.47
2016-10-26T01:48:30.808Z,84.71
2016-10-26T01:48:52.536Z,84.88
2016-10-26T01:49:14.250Z,85.07
2016-10-26T01:49:35.976Z,85.22
2016-10-26T01:49:57.691Z,85.12
2016-10-26T01:50:19.419Z,85.11
2016-10-26T01:50:41.133Z,85.20
2016-10-26T01:51:02.846Z,85.27
2016-10-26T01:51:24.571Z,85.28
2016-10-26T01:51:46.291Z,85.04
2016-10-26T01:52:08.008Z,84.75
2016-10-26T01:52:29.741Z,84.73
2016-10-26T01:52:51.461Z,84.53
2016-10-26T01:53:13.174Z,84.72
2016-10-26T01:53:34.899Z,84.71
2016-10-26T01:53:56.618Z,84.60
2016-10-26T01:54:18.335Z,84.51
2016-10-26T01:54:40.075Z,84.52
2016-10-26T01:55:01.793Z,84.55
2016-10-26T01:55:23.508Z,84.52
2016-10-26T01:55:48.154Z,84.66
2016-10-26T01:56:09.944Z,84.81
2016-10-26T01:56:36.457Z,84.70
2016-10-26T01:56:58.178Z,84.68
2016-10-26T01:57:19.899Z,84.63
2016-10-26T01:57:41.620Z,84.79
2016-10-26T01:58:03.336Z,84.78
2016-10-26T01:58:25.055Z,84.71
2016-10-26T01:58:46.774Z,84.74
2016-10-26T01:59:08.493Z,84.83
2016-10-26T01:59:30.242Z,84.81
2016-10-26T01:59:51.964Z,84.82
2016-10-26T02:00:13.775Z,84.81
2016-10-26T02:00:35.493Z,84.74
2016-10-26T02:00:57.208Z,84.56
2016-10-26T02:01:18.941Z,84.61
2016-10-26T02:01:40.650Z,84.75
2016-10-26T02:02:07.255Z,84.73
2016-10-26T02:02:28.978Z,84.62
2016-10-26T02:02:50.693Z,84.88
2016-10-26T02:03:12.411Z,84.84
2016-10-26T02:03:34.123Z,84.57
2016-10-26T02:03:55.855Z,84.51
2016-10-26T02:04:17.580Z,84.65
2016-10-26T02:04:39.300Z,84.84
2016-10-26T02:05:01.018Z,84.98
2016-10-26T02:05:22.730Z,85.26
2016-10-26T02:05:44.448Z,85.08
2016-10-26T02:06:06.163Z,84.79
2016-10-26T02:06:27.896Z,84.67
2016-10-26T02:06:49.653Z,84.76
2016-10-26T02:07:11.568Z,84.94
2016-10-26T02:07:33.283Z,85.23
2016-10-26T02:07:55.002Z,85.21
2016-10-26T02:08:16.717Z,85.15
2016-10-26T02:08:38.426Z,85.23
2016-10-26T02:09:00.146Z,85.28
2016-10-26T02:09:21.865Z,85.25
2016-10-26T02:09:43.585Z,85.23
2016-10-26T02:10:05.318Z,85.22
2016-10-26T02:10:27.038Z,85.12
2016-10-26T02:10:48.762Z,85.19
2016-10-26T02:11:10.504Z,85.05
2016-10-26T02:11:32.221Z,85.11
2016-10-26T02:11:53.940Z,85.20
2016-10-26T02:12:15.680Z,85.37
2016-10-26T02:12:37.411Z,85.27
2016-10-26T02:12:59.126Z,85.21
2016-10-26T02:13:20.840Z,84.99
2016-10-26T02:13:42.557Z,84.88
2016-10-26T02:14:04.275Z,84.78
2016-10-26T02:14:25.995Z,84.67
2016-10-26T02:14:47.714Z,84.58
2016-10-26T02:15:09.440Z,84.37
2016-10-26T02:15:31.158Z,84.43
2016-10-26T02:15:52.885Z,84.62
2016-10-26T02:16:14.602Z,84.89
2016-10-26T02:16:36.318Z,84.86
2016-10-26T02:16:58.030Z,84.93
2016-10-26T02:17:19.744Z,84.92
2016-10-26T02:17:41.463Z,84.91
2016-10-26T02:18:03.189Z,84.98
2016-10-26T02:18:24.913Z,85.14
2016-10-26T02:18:46.625Z,85.20
2016-10-26T02:19:08.350Z,85.50
2016-10-26T02:19:30.184Z,85.50
2016-10-26T02:19:51.916Z,85.53
2016-10-26T02:20:13.630Z,85.60
2016-10-26T02:20:35.348Z,85.51
2016-10-26T02:20:57.069Z,85.55
2016-10-26T02:21:18.783Z,85.33
2016-10-26T02:21:40.508Z,85.41
2016-10-26T02:22:02.227Z,85.57
2016-10-26T02:22:23.942Z,85.54
2016-10-26T02:22:45.674Z,85.57
2016-10-26T02:23:07.393Z,85.62
2016-10-26T02:23:29.131Z,85.66
2016-10-26T02:23:50.822Z,85.22
2016-10-26T02:24:12.568Z,85.18
2016-10-26T02:24:34.284Z,84.95
2016-10-26T02:24:56.001Z,85.01
2016-10-26T02:25:17.724Z,85.10
2016-10-26T02:25:39.440Z,85.17
2016-10-26T02:26:01.161Z,85.40
2016-10-26T02:26:22.889Z,85.62
2016-10-26T02:26:44.603Z,85.66
2016-10-26T02:27:06.336Z,85.83
2016-10-26T02:27:28.055Z,85.72
2016-10-26T02:27:49.774Z,85.70
2016-10-26T02:28:11.493Z,85.50
2016-10-26T02:28:33.213Z,85.78
2016-10-26T02:28:54.933Z,85.87
2016-10-26T02:29:16.648Z,85.76
2016-10-26T02:29:38.365Z,85.50
2016-10-26T02:30:00.079Z,85.54
2016-10-26T02:30:21.790Z,85.39
2016-10-26T02:30:43.507Z,85.09
2016-10-26T02:31:05.223Z,85.35
2016-10-26T02:31:26.946Z,85.25
2016-10-26T02:31:48.664Z,85.09
2016-10-26T02:32:10.386Z,85.28
2016-10-26T02:32:32.106Z,85.42
2016-10-26T02:32:53.823Z,85.40
2016-10-26T02:33:18.340Z,85.46
2016-10-26T02:33:40.057Z,85.45
2016-10-26T02:34:01.774Z,85.45
2016-10-26T02:34:23.492Z,85.40
2016-10-26T02:34:45.222Z,85.43
2016-10-26T02:35:06.945Z,85.53
2016-10-26T02:35:28.660Z,85.71
2016-10-26T02:35:50.381Z,85.50
2016-10-26T02:36:12.113Z,85.26
2016-10-26T02:36:33.828Z,85.08
2016-10-26T02:36:55.550Z,84.97
2016-10-26T02:37:17.273Z,84.62
2016-10-26T02:37:39.007Z,84.74
2016-10-26T02:38:00.725Z,84.85
2016-10-26T02:38:22.438Z,85.11
2016-10-26T02:38:44.152Z,85.05
2016-10-26T02:39:05.861Z,85.02
2016-10-26T02:39:27.582Z,84.91
2016-10-26T02:39:49.297Z,84.76
2016-10-26T02:40:11.011Z,84.81
2016-10-26T02:40:32.729Z,84.88
2016-10-26T02:40:54.439Z,85.08
2016-10-26T02:41:16.158Z,85.17
2016-10-26T02:41:37.879Z,85.27
2016-10-26T02:41:59.612Z,85.22
2016-10-26T02:42:21.328Z,85.06
2016-10-26T02:42:43.044Z,85.05
2016-10-26T02:43:04.762Z,84.90
2016-10-26T02:43:26.479Z,84.78
2016-10-26T02:43:48.195Z,84.56
2016-10-26T02:44:09.914Z,84.29
2016-10-26T02:44:31.633Z,84.44
2016-10-26T02:44:53.350Z,84.51
2016-10-26T02:45:15.070Z,84.65
2016-10-26T02:45:36.783Z,84.50
2016-10-26T02:45:58.505Z,84.39
2016-10-26T02:46:20.232Z,84.52
2016-10-26T02:46:41.947Z,84.41
2016-10-26T02:47:08.450Z,84.60
2016-10-26T02:47:30.165Z,84.88
2016-10-26T02:47:51.880Z,84.66
2016-10-26T02:48:13.599Z,84.90
2016-10-26T02:48:35.310Z,84.87
2016-10-26T02:48:57.028Z,84.89
2016-10-26T02:49:18.753Z,84.87
2016-10-26T02:49:40.454Z,85.06
2016-10-26T02:50:02.239Z,85.18
2016-10-26T02:50:23.957Z,85.38
2016-10-26T02:50:45.679Z,85.29
2016-10-26T02:51:07.398Z,85.14
2016-10-26T02:51:29.146Z,85.02
2016-10-26T02:51:50.865Z,84.97
2016-10-26T02:52:12.592Z,85.24
2016-10-26T02:52:34.308Z,85.28
2016-10-26T02:52:56.030Z,85.32
2016-10-26T02:53:17.745Z,85.20
2016-10-26T02:53:39.481Z,84.97
2016-10-26T02:54:01.198Z,84.91
2016-10-26T02:54:22.917Z,84.72
2016-10-26T02:54:44.639Z,84.49
2016-10-26T02:55:06.357Z,84.43
2016-10-26T02:55:28.073Z,84.28
2016-10-26T02:55:49.795Z,84.19
2016-10-26T02:56:11.615Z,84.26
2016-10-26T02:56:33.331Z,84.19
2016-10-26T02:56:55.046Z,84.21
2016-10-26T02:57:16.780Z,84.34
2016-10-26T02:57:38.484Z,84.54
2016-10-26T02:58:00.202Z,84.63
2016-10-26T02:58:21.940Z,84.50
2016-10-26T02:58:43.651Z,84.50
2016-10-26T02:59:05.378Z,84.63
2016-10-26T02:59:27.091Z,84.69
2016-10-26T02:59:48.814Z,84.67
2016-10-26T03:00:10.530Z,84.76
2016-10-26T03:00:32.241Z,84.80
2016-10-26T03:00:53.955Z,84.89
2016-10-26T03:01:15.677Z,84.89
2016-10-26T03:01:37.394Z,84.82
2016-10-26T03:01:59.117Z,85.00
2016-10-26T03:02:20.835Z,85.19
2016-10-26T03:02:42.553Z,84.85
2016-10-26T03:03:04.266Z,84.89
2016-10-26T03:03:25.982Z,84.75
2016-10-26T03:03:47.696Z,84.65
2016-10-26T03:04:09.414Z,84.57
2016-10-26T03:04:31.129Z,84.34
2016-10-26T03:04:52.849Z,84.20
2016-10-26T03:05:14.567Z,84.54
2016-10-26T03:05:36.285Z,84.71
2016-10-26T03:05:58.004Z,84.93
2016-10-26T03:06:19.745Z,85.15
2016-10-26T03:06:41.478Z,85.19
2016-10-26T03:07:03.190Z,85.22
2016-10-26T03:07:24.908Z,85.25
2016-10-26T03:07:46.626Z,85.32
2016-10-26T03:08:08.341Z,85.32
2016-10-26T03:08:30.065Z,85.39
2016-10-26T03:08:51.790Z,85.60
2016-10-26T03:09:13.521Z,85.76
2016-10-26T03:09:35.245Z,85.64
2016-10-26T03:09:56.958Z,85.43
2016-10-26T03:10:18.676Z,85.40
2016-10-26T03:10:40.390Z,85.44
2016-10-26T03:11:02.102Z,85.54
2016-10-26T03:11:23.838Z,85.52
2016-10-26T03:11:45.564Z,85.46
2016-10-26T03:12:07.291Z,85.38
2016-10-26T03:12:29.003Z,85.25
2016-10-26T03:12:50.723Z,85.13
2016-10-26T03:13:12.445Z,85.01
2016-10-26T03:13:34.173Z,85.02
2016-10-26T03:13:55.905Z,85.14
2016-10-26T03:14:17.609Z,84.94
2016-10-26T03:14:39.313Z,84.92
2016-10-26T03:15:01.050Z,84.93
2016-10-26T03:15:22.767Z,84.87
2016-10-26T03:15:44.487Z,84.71
2016-10-26T03:16:06.207Z,84.50
2016-10-26T03:16:27.923Z,84.37
2016-10-26T03:16:49.640Z,84.43
2016-10-26T03:17:11.383Z,84.62
2016-10-26T03:17:33.121Z,84.90
2016-10-26T03:17:54.835Z,85.27
2016-10-26T03:18:16.553Z,85.50
2016-10-26T03:18:38.277Z,85.67
2016-10-26T03:18:59.998Z,85.75
2016-10-26T03:19:21.715Z,85.71
2016-10-26T03:19:43.432Z,85.71
2016-10-26T03:20:05.281Z,85.76
2016-10-26T03:20:27.000Z,85.81
2016-10-26T03:20:48.725Z,85.71
2016-10-26T03:21:10.445Z,85.62
2016-10-26T03:21:32.185Z,85.43
2016-10-26T03:21:53.905Z,85.25
2016-10-26T03:22:15.615Z,85.46
2016-10-26T03:22:37.335Z,85.58
2016-10-26T03:22:59.055Z,85.51
2016-10-26T03:23:20.780Z,85.16
2016-10-26T03:23:42.522Z,84.83
2016-10-26T03:24:04.229Z,84.64
2016-10-26T03:24:25.946Z,84.73
2016-10-26T03:24:47.671Z,84.68
2016-10-26T03:25:09.415Z,84.56
2016-10-26T03:25:31.108Z,84.56
2016-10-26T03:25:52.826Z,84.59
2016-10-26T03:26:14.557Z,84.49
2016-10-26T03:26:36.271Z,84.59
2016-10-26T03:26:57.991Z,84.80
2016-10-26T03:27:19.706Z,84.68
2016-10-26T03:27:41.422Z,84.60
2016-10-26T03:28:03.136Z,84.65
2016-10-26T03:28:24.911Z,84.62
2016-10-26T03:28:46.721Z,84.46
2016-10-26T03:29:08.529Z,84.31
2016-10-26T03:29:30.242Z,84.32
2016-10-26T03:29:51.966Z,84.34
2016-10-26T03:30:13.683Z,84.33
2016-10-26T03:30:35.404Z,84.39
2016-10-26T03:30:57.112Z,84.44
2016-10-26T03:31:18.829Z,84.59
2016-10-26T03:31:40.545Z,84.63
2016-10-26T03:32:02.266Z,84.78
2016-10-26T03:32:24.054Z,84.79
2016-10-26T03:32:45.777Z,84.84
2016-10-26T03:33:07.493Z,84.99
2016-10-26T03:33:29.207Z,85.04
2016-10-26T03:33:50.929Z,85.21
2016-10-26T03:34:17.473Z,84.97
2016-10-26T03:34:39.191Z,84.93
2016-10-26T03:35:00.927Z,85.03
2016-10-26T03:35:22.648Z,85.15
2016-10-26T03:35:44.359Z,85.04
2016-10-26T03:36:06.073Z,84.97
2016-10-26T03:36:27.804Z,85.03
2016-10-26T03:36:49.524Z,84.94
2016-10-26T03:37:11.326Z,84.90
2016-10-26T03:37:33.035Z,84.90
2016-10-26T03:37:54.753Z,84.76
2016-10-26T03:38:16.481Z,84.60
2016-10-26T03:38:38.195Z,84.57
2016-10-26T03:39:00.035Z,84.62
2016-10-26T03:39:21.751Z,84.86
2016-10-26T03:39:43.467Z,85.07
2016-10-26T03:40:05.184Z,85.30
2016-10-26T03:40:26.905Z,85.16
2016-10-26T03:40:48.622Z,84.99
2016-10-26T03:41:10.342Z,84.76
2016-10-26T03:41:32.058Z,84.86
2016-10-26T03:41:53.800Z,84.78
2016-10-26T03:42:15.529Z,84.68
2016-10-26T03:42:37.244Z,84.72
2016-10-26T03:42:58.965Z,84.94
2016-10-26T03:43:20.675Z,85.08
2016-10-26T03:43:42.404Z,85.16
2016-10-26T03:44:04.126Z,84.92
2016-10-26T03:44:25.842Z,84.88
2016-10-26T03:44:47.563Z,84.76
2016-10-26T03:45:09.293Z,84.88
2016-10-26T03:45:31.024Z,84.93
2016-10-26T03:45:52.730Z,85.00
2016-10-26T03:46:14.451Z,84.85
2016-10-26T03:46:36.172Z,85.00
2016-10-26T03:46:57.892Z,84.90
2016-10-26T03:47:19.616Z,84.98
2016-10-26T03:47:41.340Z,85.01
2016-10-26T03:48:03.163Z,85.15
2016-10-26T03:48:24.879Z,85.09
2016-10-26T03:48:46.593Z,84.82
2016-10-26T03:49:08.316Z,84.52
2016-10-26T03:49:30.036Z,84.51
2016-10-26T03:49:51.769Z,84.53
2016-10-26T03:50:13.485Z,84.40
2016-10-26T03:50:35.205Z,84.16
2016-10-26T03:50:56.924Z,84.19
2016-10-26T03:51:18.643Z,84.32
2016-10-26T03:51:40.360Z,84.36
2016-10-26T03:52:02.076Z,84.46
2016-10-26T03:52:23.811Z,84.42
2016-10-26T03:52:45.543Z,84.34
2016-10-26T03:53:07.259Z,84.56
2016-10-26T03:53:28.977Z,84.79
2016-10-26T03:53:50.699Z,84.83
2016-10-26T03:54:12.414Z,84.83
2016-10-26T03:54:34.133Z,84.77
2016-10-26T03:54:55.854Z,84.74
2016-10-26T03:55:17.584Z,84.71
2016-10-26T03:55:39.302Z,84.74
2016-10-26T03:56:01.014Z,84.85
2016-10-26T03:56:22.743Z,84.91
2016-10-26T03:56:44.463Z,84.75
2016-10-26T03:57:06.186Z,84.57
2016-10-26T03:57:27.899Z,84.48
2016-10-26T03:57:49.614Z,84.58
2016-10-26T03:58:11.330Z,84.60
2016-10-26T03:58:33.052Z,84.60
2016-10-26T03:58:54.801Z,84.62
2016-10-26T03:59:16.534Z,84.54
2016-10-26T03:59:38.261Z,84.53
2016-10-26T03:59:59.991Z,84.57
2016-10-26T04:00:21.739Z,84.68
2016-10-26T04:00:43.460Z,85.00
2016-10-26T04:01:05.189Z,85.06
2016-10-26T04:01:26.902Z,85.08
2016-10-26T04:01:48.615Z,85.02
2016-10-26T04:02:10.341Z,84.83
2016-10-26T04:02:32.053Z,84.70
2016-10-26T04:02:53.773Z,84.60
2016-10-26T04:03:15.504Z,84.74
2016-10-26T04:03:37.284Z,84.62
2016-10-26T04:03:59.011Z,84.71
2016-10-26T04:04:20.765Z,84.76
2016-10-26T04:04:42.488Z,84.98
2016-10-26T04:05:05.207Z,85.09
2016-10-26T04:05:26.927Z,85.14
2016-10-26T04:05:48.647Z,84.90
2016-10-26T04:06:10.363Z,84.79
2016-10-26T04:06:32.081Z,84.78
2016-10-26T04:06:53.799Z,84.69
2016-10-26T04:07:15.521Z,84.86
2016-10-26T04:07:37.265Z,84.87
2016-10-26T04:07:58.977Z,84.76
2016-10-26T04:08:20.775Z,84.80
2016-10-26T04:08:42.496Z,84.91
2016-10-26T04:09:04.220Z,85.03
2016-10-26T04:09:25.939Z,84.88
2016-10-26T04:09:47.649Z,84.73
2016-10-26T04:10:09.369Z,84.80
2016-10-26T04:10:31.092Z,84.85
2016-10-26T04:10:52.805Z,84.74
2016-10-26T04:11:14.540Z,84.65
2016-10-26T04:11:36.254Z,84.60
2016-10-26T04:11:57.973Z,84.83
2016-10-26T04:12:19.690Z,84.78
2016-10-26T04:12:41.411Z,84.90
2016-10-26T04:13:03.138Z,84.78
2016-10-26T04:13:24.857Z,84.87
2016-10-26T04:13:46.643Z,84.99
2016-10-26T04:14:08.367Z,84.77
2016-10-26T04:14:31.077Z,84.69
2016-10-26T04:14:52.799Z,84.53
2016-10-26T04:15:14.517Z,84.71
2016-10-26T04:15:36.269Z,84.75
2016-10-26T04:15:57.972Z,84.87
2016-10-26T04:16:19.761Z,84.64
2016-10-26T04:16:41.474Z,84.73
2016-10-26T04:17:03.188Z,84.92
2016-10-26T04:17:24.907Z,84.98
2016-10-26T04:17:46.626Z,84.99
2016-10-26T04:18:08.343Z,84.88
2016-10-26T04:18:30.065Z,84.84
2016-10-26T04:18:51.783Z,84.67
2016-10-26T04:19:13.506Z,84.60
2016-10-26T04:19:35.223Z,84.61
2016-10-26T04:19:56.945Z,84.66
2016-10-26T04:20:18.659Z,84.87
2016-10-26T04:20:40.461Z,85.01
2016-10-26T04:21:02.176Z,84.95
2016-10-26T04:21:23.893Z,85.06
2016-10-26T04:21:45.611Z,85.11
2016-10-26T04:22:07.329Z,85.24
2016-10-26T04:22:29.048Z,85.23
2016-10-26T04:22:50.790Z,85.29
2016-10-26T04:23:12.510Z,85.21
2016-10-26T04:23:34.225Z,85.20
2016-10-26T04:23:55.949Z,85.09
2016-10-26T04:24:17.677Z,85.16
2016-10-26T04:24:39.404Z,85.13
2016-10-26T04:25:01.135Z,85.21
2016-10-26T04:25:22.860Z,85.01
2016-10-26T04:25:44.577Z,85.01
2016-10-26T04:26:11.093Z,85.27
2016-10-26T04:26:32.842Z,85.26
2016-10-26T04:26:54.556Z,85.08
2016-10-26T04:27:16.273Z,85.23
2016-10-26T04:27:38.057Z,85.26
2016-10-26T04:27:59.828Z,85.05
2016-10-26T04:28:22.549Z,85.04
2016-10-26T04:28:44.270Z,85.30
2016-10-26T04:29:05.997Z,85.29
2016-10-26T04:29:27.717Z,85.26
2016-10-26T04:29:49.445Z,85.39
2016-10-26T04:30:11.268Z,85.33
2016-10-26T04:30:32.994Z,85.35
2016-10-26T04:30:54.730Z,85.39
2016-10-26T04:31:16.443Z,85.31
2016-10-26T04:31:38.174Z,85.13
2016-10-26T04:31:59.894Z,84.96
2016-10-26T04:32:21.611Z,84.83
2016-10-26T04:32:43.327Z,84.91
2016-10-26T04:33:05.042Z,85.01
2016-10-26T04:33:26.762Z,84.99
2016-10-26T04:33:48.495Z,85.13
2016-10-26T04:34:10.218Z,85.04
2016-10-26T04:34:31.940Z,85.13
2016-10-26T04:34:53.658Z,85.00
2016-10-26T04:35:15.379Z,85.02
2016-10-26T04:35:37.097Z,85.18
2016-10-26T04:35:58.825Z,85.23
2016-10-26T04:36:20.544Z,85.00
2016-10-26T04:36:42.266Z,84.90
2016-10-26T04:37:03.992Z,84.87
2016-10-26T04:37:25.718Z,85.02
2016-10-26T04:37:47.429Z,85.17
2016-10-26T04:38:09.156Z,84.95
2016-10-26T04:38:30.868Z,84.97
2016-10-26T04:38:52.585Z,85.04
2016-10-26T04:39:14.300Z,85.12
2016-10-26T04:39:36.031Z,85.26
2016-10-26T04:39:57.742Z,85.25
2016-10-26T04:40:19.459Z,85.40
2016-10-26T04:40:41.189Z,85.29
2016-10-26T04:41:02.914Z,85.26
2016-10-26T04:41:24.636Z,85.29